sensor_id;sensor_type;location;lat;lon;timestamp;P1;P2;P0
67376;PMS7003;54261;46.086;6.588;2023-07-20T00:02:34;4.33;4.33;3.67
67376;PMS7003;54261;46.086;6.588;2023-07-20T00:07:36;5.00;3.67;3.67
67376;PMS7003;54261;46.086;6.588;2023-07-20T00:12:38;5.00;4.00;3.00
67376;PMS7003;54261;46.086;6.588;2023-07-20T00:17:40;2.00;2.00;1.33
67376;PMS7003;54261;46.086;6.588;2023-07-20T00:22:42;3.67;3.67;2.67
67376;PMS7003;54261;46.086;6.588;2023-07-20T00:27:44;6.00;5.00;2.67
67376;PMS7003;54261;46.086;6.588;2023-07-20T00:32:46;2.67;2.67;2.67
67376;PMS7003;54261;46.086;6.588;2023-07-20T00:37:48;4.67;4.67;4.00
67376;PMS7003;54261;46.086;6.588;2023-07-20T00:42:50;4.00;4.00;3.00
67376;PMS7003;54261;46.086;6.588;2023-07-20T00:47:57;4.33;4.33;3.33
67376;PMS7003;54261;46.086;6.588;2023-07-20T00:52:59;4.00;4.00;3.00
67376;PMS7003;54261;46.086;6.588;2023-07-20T00:58:04;7.00;4.00;2.67
67376;PMS7003;54261;46.086;6.588;2023-07-20T01:03:09;1.33;1.33;1.00
67376;PMS7003;54261;46.086;6.588;2023-07-20T01:08:12;5.00;5.00;3.00
67376;PMS7003;54261;46.086;6.588;2023-07-20T01:13:30;6.00;5.00;2.67
67376;PMS7003;54261;46.086;6.588;2023-07-20T01:18:32;4.00;4.00;3.33
67376;PMS7003;54261;46.086;6.588;2023-07-20T01:29:11;5.67;3.67;3.00
67376;PMS7003;54261;46.086;6.588;2023-07-20T01:34:22;5.00;5.00;4.67
67376;PMS7003;54261;46.086;6.588;2023-07-20T01:39:26;6.00;6.00;4.33
67376;PMS7003;54261;46.086;6.588;2023-07-20T01:44:28;3.67;3.67;3.67
67376;PMS7003;54261;46.086;6.588;2023-07-20T01:49:31;3.00;3.00;2.67
67376;PMS7003;54261;46.086;6.588;2023-07-20T01:54:33;3.67;3.67;3.00
67376;PMS7003;54261;46.086;6.588;2023-07-20T01:59:35;4.33;4.33;3.67
67376;PMS7003;54261;46.086;6.588;2023-07-20T02:04:37;5.67;3.67;3.00
67376;PMS7003;54261;46.086;6.588;2023-07-20T02:09:39;4.67;4.67;4.00
67376;PMS7003;54261;46.086;6.588;2023-07-20T02:14:42;6.67;4.67;3.00
67376;PMS7003;54261;46.086;6.588;2023-07-20T02:19:43;4.33;4.33;3.33
67376;PMS7003;54261;46.086;6.588;2023-07-20T02:24:45;4.33;4.00;3.00
67376;PMS7003;54261;46.086;6.588;2023-07-20T02:29:47;5.00;5.00;3.33
67376;PMS7003;54261;46.086;6.588;2023-07-20T02:34:49;5.67;4.33;3.33
67376;PMS7003;54261;46.086;6.588;2023-07-20T02:39:51;4.33;4.33;3.33
67376;PMS7003;54261;46.086;6.588;2023-07-20T02:44:53;5.00;5.00;3.67
67376;PMS7003;54261;46.086;6.588;2023-07-20T02:49:55;3.67;3.67;3.00
67376;PMS7003;54261;46.086;6.588;2023-07-20T02:54:56;5.00;5.00;4.00
67376;PMS7003;54261;46.086;6.588;2023-07-20T02:59:58;3.67;3.67;2.67
67376;PMS7003;54261;46.086;6.588;2023-07-20T03:05:00;5.67;5.67;4.67
67376;PMS7003;54261;46.086;6.588;2023-07-20T03:10:04;5.00;5.00;4.00
67376;PMS7003;54261;46.086;6.588;2023-07-20T03:15:10;5.00;5.00;4.00
67376;PMS7003;54261;46.086;6.588;2023-07-20T03:20:13;3.00;3.00;3.00
67376;PMS7003;54261;46.086;6.588;2023-07-20T03:25:15;4.67;4.67;3.67
67376;PMS7003;54261;46.086;6.588;2023-07-20T03:30:17;4.33;4.33;3.33
67376;PMS7003;54261;46.086;6.588;2023-07-20T03:35:18;4.00;4.00;3.00
67376;PMS7003;54261;46.086;6.588;2023-07-20T03:40:20;4.00;4.00;3.00
67376;PMS7003;54261;46.086;6.588;2023-07-20T03:45:22;5.00;5.00;5.00
67376;PMS7003;54261;46.086;6.588;2023-07-20T03:50:25;7.00;6.67;4.00
67376;PMS7003;54261;46.086;6.588;2023-07-20T03:55:27;4.33;4.33;3.00
67376;PMS7003;54261;46.086;6.588;2023-07-20T04:00:29;4.00;4.00;3.33
67376;PMS7003;54261;46.086;6.588;2023-07-20T04:05:31;4.00;4.00;3.33
67376;PMS7003;54261;46.086;6.588;2023-07-20T04:10:33;5.00;5.00;4.33
67376;PMS7003;54261;46.086;6.588;2023-07-20T04:15:35;6.00;6.00;4.67
67376;PMS7003;54261;46.086;6.588;2023-07-20T04:20:37;6.33;5.67;4.33
67376;PMS7003;54261;46.086;6.588;2023-07-20T04:25:39;7.00;7.00;6.33
67376;PMS7003;54261;46.086;6.588;2023-07-20T04:30:43;5.33;5.33;4.00
67376;PMS7003;54261;46.086;6.588;2023-07-20T04:41:03;6.00;6.00;4.00
67376;PMS7003;54261;46.086;6.588;2023-07-20T04:46:10;7.67;5.00;4.00
67376;PMS7003;54261;46.086;6.588;2023-07-20T04:51:13;5.67;5.67;5.00
67376;PMS7003;54261;46.086;6.588;2023-07-20T04:56:15;5.67;5.67;4.67
67376;PMS7003;54261;46.086;6.588;2023-07-20T05:01:17;4.00;4.00;4.00
67376;PMS7003;54261;46.086;6.588;2023-07-20T05:06:19;5.67;5.33;4.33
67376;PMS7003;54261;46.086;6.588;2023-07-20T05:11:22;5.00;5.00;4.00
67376;PMS7003;54261;46.086;6.588;2023-07-20T05:16:24;6.00;6.00;5.00
67376;PMS7003;54261;46.086;6.588;2023-07-20T05:21:28;5.00;4.00;3.00
67376;PMS7003;54261;46.086;6.588;2023-07-20T05:26:30;6.00;6.00;4.33
67376;PMS7003;54261;46.086;6.588;2023-07-20T05:31:32;5.33;5.00;4.00
67376;PMS7003;54261;46.086;6.588;2023-07-20T05:36:34;6.33;5.67;3.67
67376;PMS7003;54261;46.086;6.588;2023-07-20T05:41:36;7.00;6.00;5.00
67376;PMS7003;54261;46.086;6.588;2023-07-20T05:46:38;5.00;4.00;3.67
67376;PMS7003;54261;46.086;6.588;2023-07-20T05:51:57;4.33;4.33;3.67
67376;PMS7003;54261;46.086;6.588;2023-07-20T05:56:59;4.67;4.67;3.67
67376;PMS7003;54261;46.086;6.588;2023-07-20T06:02:01;5.33;4.33;3.00
67376;PMS7003;54261;46.086;6.588;2023-07-20T06:07:03;5.00;4.67;3.67
67376;PMS7003;54261;46.086;6.588;2023-07-20T06:12:05;6.33;6.33;4.33
67376;PMS7003;54261;46.086;6.588;2023-07-20T06:17:07;4.33;4.33;3.33
67376;PMS7003;54261;46.086;6.588;2023-07-20T06:22:09;7.33;5.67;4.33
67376;PMS7003;54261;46.086;6.588;2023-07-20T06:27:11;5.00;3.67;3.33
67376;PMS7003;54261;46.086;6.588;2023-07-20T06:32:13;4.33;4.33;3.00
67376;PMS7003;54261;46.086;6.588;2023-07-20T06:37:15;4.00;4.00;4.00
67376;PMS7003;54261;46.086;6.588;2023-07-20T06:42:17;5.00;5.00;3.67
67376;PMS7003;54261;46.086;6.588;2023-07-20T06:47:19;5.67;5.67;4.00
67376;PMS7003;54261;46.086;6.588;2023-07-20T06:52:21;6.33;5.33;5.00
67376;PMS7003;54261;46.086;6.588;2023-07-20T06:57:22;5.33;4.33;4.00
67376;PMS7003;54261;46.086;6.588;2023-07-20T07:02:24;5.00;5.00;4.00
67376;PMS7003;54261;46.086;6.588;2023-07-20T07:07:27;5.67;4.67;2.33
67376;PMS7003;54261;46.086;6.588;2023-07-20T07:12:28;5.00;5.00;3.67
67376;PMS7003;54261;46.086;6.588;2023-07-20T07:17:30;6.33;5.67;4.33
67376;PMS7003;54261;46.086;6.588;2023-07-20T07:22:35;5.00;5.00;4.00
67376;PMS7003;54261;46.086;6.588;2023-07-20T07:27:37;5.67;5.67;4.67
67376;PMS7003;54261;46.086;6.588;2023-07-20T07:32:39;8.33;7.33;5.00
67376;PMS7003;54261;46.086;6.588;2023-07-20T07:37:44;6.00;5.00;5.00
67376;PMS7003;54261;46.086;6.588;2023-07-20T07:43:07;5.33;5.33;5.00
67376;PMS7003;54261;46.086;6.588;2023-07-20T07:48:11;6.33;6.33;4.00
67376;PMS7003;54261;46.086;6.588;2023-07-20T07:53:14;6.00;6.00;5.00
67376;PMS7003;54261;46.086;6.588;2023-07-20T07:58:16;5.67;5.67;4.67
67376;PMS7003;54261;46.086;6.588;2023-07-20T08:03:19;8.00;7.33;5.33
67376;PMS7003;54261;46.086;6.588;2023-07-20T08:08:22;5.00;5.00;4.33
67376;PMS7003;54261;46.086;6.588;2023-07-20T08:13:25;8.00;7.00;5.00
67376;PMS7003;54261;46.086;6.588;2023-07-20T08:18:27;8.00;7.00;4.67
67376;PMS7003;54261;46.086;6.588;2023-07-20T08:23:29;5.67;4.67;3.33
67376;PMS7003;54261;46.086;6.588;2023-07-20T08:28:31;6.00;6.00;4.67
67376;PMS7003;54261;46.086;6.588;2023-07-20T08:33:33;6.33;5.00;4.33
67376;PMS7003;54261;46.086;6.588;2023-07-20T08:38:35;8.00;7.67;6.00
67376;PMS7003;54261;46.086;6.588;2023-07-20T08:43:37;7.50;7.00;5.00
67376;PMS7003;54261;46.086;6.588;2023-07-20T08:48:43;6.00;6.00;5.00
67376;PMS7003;54261;46.086;6.588;2023-07-20T08:53:47;8.33;7.00;5.00
67376;PMS7003;54261;46.086;6.588;2023-07-20T08:58:49;7.00;7.00;5.67
67376;PMS7003;54261;46.086;6.588;2023-07-20T09:03:53;6.00;4.67;4.00
67376;PMS7003;54261;46.086;6.588;2023-07-20T09:08:54;9.00;8.00;7.00
67376;PMS7003;54261;46.086;6.588;2023-07-20T09:14:03;7.00;7.00;5.33
67376;PMS7003;54261;46.086;6.588;2023-07-20T09:19:09;7.00;6.00;5.33
67376;PMS7003;54261;46.086;6.588;2023-07-20T09:24:10;6.67;6.00;5.33
67376;PMS7003;54261;46.086;6.588;2023-07-20T09:29:13;7.00;6.00;5.00
67376;PMS7003;54261;46.086;6.588;2023-07-20T09:34:17;8.00;7.00;5.00
67376;PMS7003;54261;46.086;6.588;2023-07-20T09:39:23;7.00;6.33;5.00
67376;PMS7003;54261;46.086;6.588;2023-07-20T09:44:28;7.00;6.00;5.00
67376;PMS7003;54261;46.086;6.588;2023-07-20T09:49:33;8.00;7.00;5.00
67376;PMS7003;54261;46.086;6.588;2023-07-20T09:54:44;9.00;6.33;5.00
67376;PMS7003;54261;46.086;6.588;2023-07-20T09:59:48;6.00;5.67;4.00
67376;PMS7003;54261;46.086;6.588;2023-07-20T10:04:50;8.00;7.00;5.00
67376;PMS7003;54261;46.086;6.588;2023-07-20T10:09:55;4.00;4.00;3.33
67376;PMS7003;54261;46.086;6.588;2023-07-20T10:20:12;4.00;4.00;3.00
67376;PMS7003;54261;46.086;6.588;2023-07-20T10:25:15;6.33;5.67;4.00
67376;PMS7003;54261;46.086;6.588;2023-07-20T10:30:20;4.00;4.00;3.33
67376;PMS7003;54261;46.086;6.588;2023-07-20T10:35:23;4.00;4.00;3.33
67376;PMS7003;54261;46.086;6.588;2023-07-20T10:45:41;6.00;6.00;5.00
67376;PMS7003;54261;46.086;6.588;2023-07-20T10:56:12;3.33;3.33;2.33
67376;PMS7003;54261;46.086;6.588;2023-07-20T11:01:16;3.00;3.00;1.33
67376;PMS7003;54261;46.086;6.588;2023-07-20T11:06:29;6.00;6.00;5.00
67376;PMS7003;54261;46.086;6.588;2023-07-20T11:11:33;5.00;5.00;4.00
67376;PMS7003;54261;46.086;6.588;2023-07-20T11:39:44;3.00;3.00;2.67
67376;PMS7003;54261;46.086;6.588;2023-07-20T11:44:46;6.00;6.00;4.33
67376;PMS7003;54261;46.086;6.588;2023-07-20T11:49:53;5.00;5.00;3.67
67376;PMS7003;54261;46.086;6.588;2023-07-20T11:54:56;3.33;3.33;3.00
67376;PMS7003;54261;46.086;6.588;2023-07-20T12:00:02;4.00;4.00;3.33
67376;PMS7003;54261;46.086;6.588;2023-07-20T12:05:11;4.67;4.67;4.00
67376;PMS7003;54261;46.086;6.588;2023-07-20T12:10:12;4.00;4.00;3.00
67376;PMS7003;54261;46.086;6.588;2023-07-20T12:20:26;3.00;3.00;2.00
67376;PMS7003;54261;46.086;6.588;2023-07-20T12:25:42;4.67;4.67;4.00
67376;PMS7003;54261;46.086;6.588;2023-07-20T12:30:46;5.33;5.00;4.00
67376;PMS7003;54261;46.086;6.588;2023-07-20T12:35:48;5.67;5.67;4.33
67376;PMS7003;54261;46.086;6.588;2023-07-20T12:40:51;5.00;5.00;4.00
67376;PMS7003;54261;46.086;6.588;2023-07-20T12:45:53;5.67;4.00;4.00
67376;PMS7003;54261;46.086;6.588;2023-07-20T12:50:55;5.00;5.00;4.00
67376;PMS7003;54261;46.086;6.588;2023-07-20T12:55:56;4.00;3.00;3.00
67376;PMS7003;54261;46.086;6.588;2023-07-20T13:00:58;3.67;3.67;2.67
67376;PMS7003;54261;46.086;6.588;2023-07-20T13:06:02;4.33;4.33;3.00
67376;PMS7003;54261;46.086;6.588;2023-07-20T13:11:07;4.33;4.33;3.67
67376;PMS7003;54261;46.086;6.588;2023-07-20T13:16:09;5.00;3.00;2.33
67376;PMS7003;54261;46.086;6.588;2023-07-20T13:21:10;4.33;4.33;2.33
67376;PMS7003;54261;46.086;6.588;2023-07-20T13:26:14;4.67;3.67;2.67
67376;PMS7003;54261;46.086;6.588;2023-07-20T13:31:17;4.00;4.00;3.67
67376;PMS7003;54261;46.086;6.588;2023-07-20T13:36:19;4.00;4.00;3.67
67376;PMS7003;54261;46.086;6.588;2023-07-20T13:41:23;3.33;3.33;2.67
67376;PMS7003;54261;46.086;6.588;2023-07-20T13:46:25;3.33;3.33;3.33
67376;PMS7003;54261;46.086;6.588;2023-07-20T13:51:30;4.00;4.00;4.00
67376;PMS7003;54261;46.086;6.588;2023-07-20T13:56:33;5.00;5.00;3.33
67376;PMS7003;54261;46.086;6.588;2023-07-20T14:01:35;2.25;2.25;2.25
67376;PMS7003;54261;46.086;6.588;2023-07-20T14:06:39;3.75;3.75;3.25
67376;PMS7003;54261;46.086;6.588;2023-07-20T14:11:41;5.25;5.25;4.25
67376;PMS7003;54261;46.086;6.588;2023-07-20T14:16:46;4.00;2.75;2.25
67376;PMS7003;54261;46.086;6.588;2023-07-20T14:21:48;3.00;3.00;2.33
67376;PMS7003;54261;46.086;6.588;2023-07-20T14:26:50;4.00;4.00;3.25
67376;PMS7003;54261;46.086;6.588;2023-07-20T14:31:52;4.25;3.25;2.75
67376;PMS7003;54261;46.086;6.588;2023-07-20T14:36:57;4.67;3.67;3.00
67376;PMS7003;54261;46.086;6.588;2023-07-20T14:42:00;3.00;3.00;2.00
67376;PMS7003;54261;46.086;6.588;2023-07-20T14:47:05;4.00;4.00;3.00
67376;PMS7003;54261;46.086;6.588;2023-07-20T14:52:14;4.25;3.25;3.00
67376;PMS7003;54261;46.086;6.588;2023-07-20T14:57:17;5.00;5.00;4.75
67376;PMS7003;54261;46.086;6.588;2023-07-20T15:02:20;5.00;4.75;3.75
67376;PMS7003;54261;46.086;6.588;2023-07-20T15:07:22;2.00;2.00;2.00
67376;PMS7003;54261;46.086;6.588;2023-07-20T15:12:24;3.75;3.75;2.75
67376;PMS7003;54261;46.086;6.588;2023-07-20T15:17:26;3.25;3.25;2.25
67376;PMS7003;54261;46.086;6.588;2023-07-20T15:22:28;4.33;4.33;3.00
67376;PMS7003;54261;46.086;6.588;2023-07-20T15:27:30;2.25;2.25;1.75
67376;PMS7003;54261;46.086;6.588;2023-07-20T15:32:32;4.00;4.00;3.00
67376;PMS7003;54261;46.086;6.588;2023-07-20T15:37:54;2.00;2.00;1.00
67376;PMS7003;54261;46.086;6.588;2023-07-20T15:42:56;3.67;3.67;2.67
67376;PMS7003;54261;46.086;6.588;2023-07-20T15:47:58;3.33;3.33;2.33
67376;PMS7003;54261;46.086;6.588;2023-07-20T15:53:00;2.00;2.00;2.00
67376;PMS7003;54261;46.086;6.588;2023-07-20T15:58:02;2.00;2.00;2.00
67376;PMS7003;54261;46.086;6.588;2023-07-20T16:03:04;1.00;1.00;1.00
67376;PMS7003;54261;46.086;6.588;2023-07-20T16:08:07;3.00;3.00;2.00
67376;PMS7003;54261;46.086;6.588;2023-07-20T16:13:09;3.00;3.00;2.00
67376;PMS7003;54261;46.086;6.588;2023-07-20T16:18:13;2.50;2.25;1.50
67376;PMS7003;54261;46.086;6.588;2023-07-20T16:23:15;5.00;3.00;1.25
67376;PMS7003;54261;46.086;6.588;2023-07-20T16:28:17;1.25;1.00;1.00
67376;PMS7003;54261;46.086;6.588;2023-07-20T16:33:19;2.25;2.25;1.75
67376;PMS7003;54261;46.086;6.588;2023-07-20T16:38:21;1.75;1.75;1.00
67376;PMS7003;54261;46.086;6.588;2023-07-20T16:43:23;2.00;2.00;2.00
67376;PMS7003;54261;46.086;6.588;2023-07-20T16:48:28;2.00;2.00;1.00
67376;PMS7003;54261;46.086;6.588;2023-07-20T16:53:31;1.50;1.50;1.50
67376;PMS7003;54261;46.086;6.588;2023-07-20T16:58:33;3.00;3.00;1.25
67376;PMS7003;54261;46.086;6.588;2023-07-20T17:03:35;2.50;2.00;2.00
67376;PMS7003;54261;46.086;6.588;2023-07-20T17:08:37;1.00;1.00;0.25
67376;PMS7003;54261;46.086;6.588;2023-07-20T17:13:40;2.00;2.00;2.00
67376;PMS7003;54261;46.086;6.588;2023-07-20T17:18:42;2.00;2.00;1.25
67376;PMS7003;54261;46.086;6.588;2023-07-20T17:23:43;1.25;1.25;0.25
67376;PMS7003;54261;46.086;6.588;2023-07-20T17:28:49;3.25;2.50;2.00
67376;PMS7003;54261;46.086;6.588;2023-07-20T17:33:51;1.50;1.50;1.25
67376;PMS7003;54261;46.086;6.588;2023-07-20T17:38:53;2.75;2.75;2.00
67376;PMS7003;54261;46.086;6.588;2023-07-20T17:43:55;3.75;2.75;1.50
67376;PMS7003;54261;46.086;6.588;2023-07-20T17:48:57;2.25;2.25;1.50
67376;PMS7003;54261;46.086;6.588;2023-07-20T17:53:59;3.00;3.00;1.75
67376;PMS7003;54261;46.086;6.588;2023-07-20T17:59:01;3.00;3.00;3.00
67376;PMS7003;54261;46.086;6.588;2023-07-20T18:04:03;3.00;3.00;2.00
67376;PMS7003;54261;46.086;6.588;2023-07-20T18:09:08;3.33;3.33;1.67
67376;PMS7003;54261;46.086;6.588;2023-07-20T18:14:11;3.67;3.67;3.00
67376;PMS7003;54261;46.086;6.588;2023-07-20T18:19:12;2.33;2.33;2.33
67376;PMS7003;54261;46.086;6.588;2023-07-20T18:24:14;2.67;2.67;2.00
67376;PMS7003;54261;46.086;6.588;2023-07-20T18:29:16;2.00;2.00;2.00
67376;PMS7003;54261;46.086;6.588;2023-07-20T18:34:18;2.33;2.33;1.33
67376;PMS7003;54261;46.086;6.588;2023-07-20T18:39:20;3.67;2.33;2.33
67376;PMS7003;54261;46.086;6.588;2023-07-20T18:44:22;2.67;2.67;2.00
67376;PMS7003;54261;46.086;6.588;2023-07-20T18:49:24;2.67;2.67;2.00
67376;PMS7003;54261;46.086;6.588;2023-07-20T18:54:27;2.67;2.67;2.33
67376;PMS7003;54261;46.086;6.588;2023-07-20T18:59:29;3.67;3.67;3.00
67376;PMS7003;54261;46.086;6.588;2023-07-20T19:04:31;2.00;2.00;2.00
67376;PMS7003;54261;46.086;6.588;2023-07-20T19:09:33;0.67;0.67;0.67
67376;PMS7003;54261;46.086;6.588;2023-07-20T19:14:34;1.67;1.67;1.00
67376;PMS7003;54261;46.086;6.588;2023-07-20T19:19:37;3.00;2.33;1.67
67376;PMS7003;54261;46.086;6.588;2023-07-20T19:24:39;4.33;3.00;3.00
67376;PMS7003;54261;46.086;6.588;2023-07-20T19:29:41;3.00;3.00;3.00
67376;PMS7003;54261;46.086;6.588;2023-07-20T19:34:43;1.67;1.67;1.67
67376;PMS7003;54261;46.086;6.588;2023-07-20T19:39:45;3.67;2.67;2.00
67376;PMS7003;54261;46.086;6.588;2023-07-20T19:44:47;2.33;2.33;2.00
67376;PMS7003;54261;46.086;6.588;2023-07-20T19:49:48;2.00;2.00;1.67
67376;PMS7003;54261;46.086;6.588;2023-07-20T19:54:50;1.67;1.67;1.33
67376;PMS7003;54261;46.086;6.588;2023-07-20T19:59:52;2.33;2.33;1.67
67376;PMS7003;54261;46.086;6.588;2023-07-20T20:04:55;3.00;3.00;2.33
67376;PMS7003;54261;46.086;6.588;2023-07-20T20:09:57;3.00;3.00;3.00
67376;PMS7003;54261;46.086;6.588;2023-07-20T20:14:59;3.00;3.00;3.00
67376;PMS7003;54261;46.086;6.588;2023-07-20T20:20:01;3.00;3.00;3.00
67376;PMS7003;54261;46.086;6.588;2023-07-20T20:25:03;2.33;2.33;2.33
67376;PMS7003;54261;46.086;6.588;2023-07-20T20:30:08;4.00;4.00;2.67
67376;PMS7003;54261;46.086;6.588;2023-07-20T20:35:10;3.00;3.00;2.00
67376;PMS7003;54261;46.086;6.588;2023-07-20T20:40:12;2.33;2.33;2.00
67376;PMS7003;54261;46.086;6.588;2023-07-20T20:45:15;3.00;3.00;2.00
67376;PMS7003;54261;46.086;6.588;2023-07-20T20:50:17;4.00;3.00;3.00
67376;PMS7003;54261;46.086;6.588;2023-07-20T20:55:22;2.50;2.50;2.50
67376;PMS7003;54261;46.086;6.588;2023-07-20T21:00:24;3.33;3.33;3.00
67376;PMS7003;54261;46.086;6.588;2023-07-20T21:05:26;3.00;3.00;2.67
67376;PMS7003;54261;46.086;6.588;2023-07-20T21:10:29;1.00;1.00;1.00
67376;PMS7003;54261;46.086;6.588;2023-07-20T21:15:30;2.00;2.00;2.00
67376;PMS7003;54261;46.086;6.588;2023-07-20T21:20:32;1.33;1.33;1.33
67376;PMS7003;54261;46.086;6.588;2023-07-20T21:25:35;6.00;4.67;3.00
67376;PMS7003;54261;46.086;6.588;2023-07-20T21:30:37;3.00;3.00;2.00
67376;PMS7003;54261;46.086;6.588;2023-07-20T21:35:42;3.00;2.00;2.00
67376;PMS7003;54261;46.086;6.588;2023-07-20T21:40:45;3.00;3.00;3.00
67376;PMS7003;54261;46.086;6.588;2023-07-20T21:45:46;2.00;2.00;2.00
67376;PMS7003;54261;46.086;6.588;2023-07-20T21:50:49;2.00;2.00;2.00
67376;PMS7003;54261;46.086;6.588;2023-07-20T21:55:54;2.67;2.67;2.00
67376;PMS7003;54261;46.086;6.588;2023-07-20T22:00:56;2.00;2.00;1.00
67376;PMS7003;54261;46.086;6.588;2023-07-20T22:06:01;3.00;3.00;3.00
67376;PMS7003;54261;46.086;6.588;2023-07-20T22:11:05;3.33;3.33;3.00
67376;PMS7003;54261;46.086;6.588;2023-07-20T22:16:07;2.67;2.67;2.00
67376;PMS7003;54261;46.086;6.588;2023-07-20T22:21:09;3.00;3.00;2.67
67376;PMS7003;54261;46.086;6.588;2023-07-20T22:26:13;3.00;3.00;2.00
67376;PMS7003;54261;46.086;6.588;2023-07-20T22:31:15;1.67;1.67;1.67
67376;PMS7003;54261;46.086;6.588;2023-07-20T22:36:17;2.00;2.00;2.00
67376;PMS7003;54261;46.086;6.588;2023-07-20T22:41:19;3.67;2.33;2.00
67376;PMS7003;54261;46.086;6.588;2023-07-20T22:46:21;3.00;3.00;3.00
67376;PMS7003;54261;46.086;6.588;2023-07-20T22:51:23;3.00;3.00;3.00
67376;PMS7003;54261;46.086;6.588;2023-07-20T22:56:24;3.00;2.00;2.00
67376;PMS7003;54261;46.086;6.588;2023-07-20T23:01:27;3.00;3.00;3.00
67376;PMS7003;54261;46.086;6.588;2023-07-20T23:06:29;3.00;3.00;2.67
67376;PMS7003;54261;46.086;6.588;2023-07-20T23:11:31;3.67;3.67;2.67
67376;PMS7003;54261;46.086;6.588;2023-07-20T23:16:34;3.00;3.00;2.33
67376;PMS7003;54261;46.086;6.588;2023-07-20T23:21:36;1.00;1.00;1.00
67376;PMS7003;54261;46.086;6.588;2023-07-20T23:26:38;3.00;3.00;2.33
67376;PMS7003;54261;46.086;6.588;2023-07-20T23:31:42;2.00;2.00;2.00
67376;PMS7003;54261;46.086;6.588;2023-07-20T23:36:44;2.00;2.00;2.00
67376;PMS7003;54261;46.086;6.588;2023-07-20T23:41:46;4.33;4.00;3.00
67376;PMS7003;54261;46.086;6.588;2023-07-20T23:46:48;4.00;2.67;2.00
67376;PMS7003;54261;46.086;6.588;2023-07-20T23:51:50;3.33;3.33;3.00
67376;PMS7003;54261;46.086;6.588;2023-07-20T23:56:52;3.00;3.00;2.67
